sensor_id;sensor_type;location;lat;lon;timestamp;P1;durP1;ratioP1;P2;durP2;ratioP2
73672;SDS011;61972;19.480;-99.240;2022-12-10T00:01:29;21.85;;;12.60;;
73672;SDS011;61972;19.480;-99.240;2022-12-10T00:03:57;20.77;;;12.38;;
73672;SDS011;61972;19.480;-99.240;2022-12-10T00:06:28;21.60;;;12.45;;
73672;SDS011;61972;19.480;-99.240;2022-12-10T00:08:56;22.20;;;12.47;;
73672;SDS011;61972;19.480;-99.240;2022-12-10T00:11:23;24.55;;;12.93;;
73672;SDS011;61972;19.480;-99.240;2022-12-10T00:13:50;22.48;;;11.90;;
73672;SDS011;61972;19.480;-99.240;2022-12-10T00:16:18;21.17;;;12.70;;
73672;SDS011;61972;19.480;-99.240;2022-12-10T00:18:46;24.17;;;12.75;;
73672;SDS011;61972;19.480;-99.240;2022-12-10T00:21:13;22.10;;;12.83;;
73672;SDS011;61972;19.480;-99.240;2022-12-10T00:23:41;25.25;;;13.07;;
73672;SDS011;61972;19.480;-99.240;2022-12-10T00:26:27;25.67;;;14.00;;
73672;SDS011;61972;19.480;-99.240;2022-12-10T00:28:55;25.55;;;13.95;;
73672;SDS011;61972;19.480;-99.240;2022-12-10T00:31:27;28.50;;;13.98;;
73672;SDS011;61972;19.480;-99.240;2022-12-10T00:33:56;23.80;;;13.43;;
73672;SDS011;61972;19.480;-99.240;2022-12-10T00:36:28;24.38;;;14.20;;
73672;SDS011;61972;19.480;-99.240;2022-12-10T00:38:58;24.20;;;13.70;;
73672;SDS011;61972;19.480;-99.240;2022-12-10T00:41:25;31.42;;;14.98;;
73672;SDS011;61972;19.480;-99.240;2022-12-10T00:43:51;26.27;;;14.10;;
73672;SDS011;61972;19.480;-99.240;2022-12-10T00:46:17;22.57;;;12.57;;
73672;SDS011;61972;19.480;-99.240;2022-12-10T00:48:44;21.90;;;11.23;;
73672;SDS011;61972;19.480;-99.240;2022-12-10T00:51:12;22.08;;;11.63;;
73672;SDS011;61972;19.480;-99.240;2022-12-10T00:53:41;22.55;;;11.93;;
73672;SDS011;61972;19.480;-99.240;2022-12-10T00:56:09;23.38;;;11.60;;
73672;SDS011;61972;19.480;-99.240;2022-12-10T00:58:36;21.90;;;9.47;;
73672;SDS011;61972;19.480;-99.240;2022-12-10T01:01:16;19.35;;;11.18;;
73672;SDS011;61972;19.480;-99.240;2022-12-10T01:03:51;18.10;;;9.88;;
73672;SDS011;61972;19.480;-99.240;2022-12-10T01:06:23;17.17;;;10.15;;
73672;SDS011;61972;19.480;-99.240;2022-12-10T01:08:52;21.20;;;10.00;;
73672;SDS011;61972;19.480;-99.240;2022-12-10T01:11:21;21.50;;;9.83;;
73672;SDS011;61972;19.480;-99.240;2022-12-10T01:13:49;16.73;;;9.75;;
73672;SDS011;61972;19.480;-99.240;2022-12-10T01:16:18;20.25;;;9.90;;
73672;SDS011;61972;19.480;-99.240;2022-12-10T01:18:46;18.02;;;9.00;;
73672;SDS011;61972;19.480;-99.240;2022-12-10T01:21:15;18.88;;;10.57;;
73672;SDS011;61972;19.480;-99.240;2022-12-10T01:23:44;19.03;;;10.60;;
73672;SDS011;61972;19.480;-99.240;2022-12-10T01:26:15;16.77;;;9.70;;
73672;SDS011;61972;19.480;-99.240;2022-12-10T01:28:43;17.27;;;9.77;;
73672;SDS011;61972;19.480;-99.240;2022-12-10T01:31:11;16.92;;;9.60;;
73672;SDS011;61972;19.480;-99.240;2022-12-10T01:33:41;19.10;;;9.40;;
73672;SDS011;61972;19.480;-99.240;2022-12-10T01:36:11;16.00;;;9.37;;
73672;SDS011;61972;19.480;-99.240;2022-12-10T01:38:57;14.48;;;8.82;;
73672;SDS011;61972;19.480;-99.240;2022-12-10T01:41:29;15.57;;;9.30;;
73672;SDS011;61972;19.480;-99.240;2022-12-10T01:44:02;15.43;;;8.90;;
73672;SDS011;61972;19.480;-99.240;2022-12-10T01:46:35;15.15;;;9.25;;
73672;SDS011;61972;19.480;-99.240;2022-12-10T01:49:05;16.20;;;8.90;;
73672;SDS011;61972;19.480;-99.240;2022-12-10T01:51:35;16.00;;;8.70;;
73672;SDS011;61972;19.480;-99.240;2022-12-10T01:54:05;16.38;;;9.57;;
73672;SDS011;61972;19.480;-99.240;2022-12-10T01:56:35;14.50;;;8.70;;
73672;SDS011;61972;19.480;-99.240;2022-12-10T01:59:03;14.73;;;8.27;;
73672;SDS011;61972;19.480;-99.240;2022-12-10T02:04:28;15.35;;;8.93;;
73672;SDS011;61972;19.480;-99.240;2022-12-10T02:07:04;15.23;;;8.23;;
73672;SDS011;61972;19.480;-99.240;2022-12-10T02:17:50;13.30;;;7.88;;
73672;SDS011;61972;19.480;-99.240;2022-12-10T02:20:22;14.93;;;8.15;;
73672;SDS011;61972;19.480;-99.240;2022-12-10T02:23:10;14.55;;;7.95;;
73672;SDS011;61972;19.480;-99.240;2022-12-10T02:31:10;14.18;;;7.82;;
73672;SDS011;61972;19.480;-99.240;2022-12-10T02:33:40;11.50;;;7.60;;
73672;SDS011;61972;19.480;-99.240;2022-12-10T02:36:11;11.73;;;7.22;;
73672;SDS011;61972;19.480;-99.240;2022-12-10T02:38:39;14.07;;;8.18;;
73672;SDS011;61972;19.480;-99.240;2022-12-10T02:41:13;12.63;;;7.33;;
73672;SDS011;61972;19.480;-99.240;2022-12-10T02:43:43;12.50;;;7.90;;
73672;SDS011;61972;19.480;-99.240;2022-12-10T02:46:13;13.00;;;7.28;;
73672;SDS011;61972;19.480;-99.240;2022-12-10T02:48:41;13.20;;;7.18;;
73672;SDS011;61972;19.480;-99.240;2022-12-10T02:51:08;10.50;;;7.05;;
73672;SDS011;61972;19.480;-99.240;2022-12-10T02:53:40;14.87;;;7.43;;
73672;SDS011;61972;19.480;-99.240;2022-12-10T02:59:06;11.15;;;6.75;;
73672;SDS011;61972;19.480;-99.240;2022-12-10T03:07:06;10.70;;;6.80;;
73672;SDS011;61972;19.480;-99.240;2022-12-10T03:09:38;11.75;;;6.90;;
73672;SDS011;61972;19.480;-99.240;2022-12-10T03:12:38;13.95;;;6.82;;
73672;SDS011;61972;19.480;-99.240;2022-12-10T03:15:05;11.20;;;6.50;;
73672;SDS011;61972;19.480;-99.240;2022-12-10T03:17:34;10.65;;;7.20;;
73672;SDS011;61972;19.480;-99.240;2022-12-10T03:20:06;12.13;;;6.60;;
73672;SDS011;61972;19.480;-99.240;2022-12-10T03:22:37;11.88;;;6.28;;
73672;SDS011;61972;19.480;-99.240;2022-12-10T03:25:06;11.45;;;6.50;;
73672;SDS011;61972;19.480;-99.240;2022-12-10T03:27:33;10.68;;;6.32;;
73672;SDS011;61972;19.480;-99.240;2022-12-10T03:30:00;11.95;;;6.82;;
73672;SDS011;61972;19.480;-99.240;2022-12-10T03:32:27;12.33;;;6.37;;
73672;SDS011;61972;19.480;-99.240;2022-12-10T03:34:55;10.18;;;6.70;;
73672;SDS011;61972;19.480;-99.240;2022-12-10T03:37:24;10.90;;;6.65;;
73672;SDS011;61972;19.480;-99.240;2022-12-10T03:39:52;9.27;;;6.25;;
73672;SDS011;61972;19.480;-99.240;2022-12-10T03:42:18;11.63;;;6.43;;
73672;SDS011;61972;19.480;-99.240;2022-12-10T03:44:44;11.00;;;6.03;;
73672;SDS011;61972;19.480;-99.240;2022-12-10T03:47:12;9.50;;;6.07;;
73672;SDS011;61972;19.480;-99.240;2022-12-10T03:49:39;10.35;;;5.90;;
73672;SDS011;61972;19.480;-99.240;2022-12-10T03:52:07;10.85;;;6.13;;
73672;SDS011;61972;19.480;-99.240;2022-12-10T03:54:33;11.02;;;5.97;;
73672;SDS011;61972;19.480;-99.240;2022-12-10T03:56:59;11.20;;;6.70;;
73672;SDS011;61972;19.480;-99.240;2022-12-10T03:59:25;10.65;;;6.00;;
73672;SDS011;61972;19.480;-99.240;2022-12-10T04:01:51;11.65;;;6.65;;
73672;SDS011;61972;19.480;-99.240;2022-12-10T04:04:18;10.93;;;6.57;;
73672;SDS011;61972;19.480;-99.240;2022-12-10T04:06:45;11.13;;;6.45;;
73672;SDS011;61972;19.480;-99.240;2022-12-10T04:09:11;11.87;;;6.23;;
73672;SDS011;61972;19.480;-99.240;2022-12-10T04:11:39;8.75;;;6.07;;
73672;SDS011;61972;19.480;-99.240;2022-12-10T04:14:05;9.77;;;6.25;;
73672;SDS011;61972;19.480;-99.240;2022-12-10T04:16:51;10.85;;;6.72;;
73672;SDS011;61972;19.480;-99.240;2022-12-10T04:19:18;9.20;;;6.00;;
73672;SDS011;61972;19.480;-99.240;2022-12-10T04:21:44;9.57;;;6.40;;
73672;SDS011;61972;19.480;-99.240;2022-12-10T04:24:31;11.63;;;6.13;;
73672;SDS011;61972;19.480;-99.240;2022-12-10T04:27:18;11.27;;;6.53;;
73672;SDS011;61972;19.480;-99.240;2022-12-10T04:29:47;10.73;;;6.30;;
73672;SDS011;61972;19.480;-99.240;2022-12-10T04:32:13;10.05;;;6.07;;
73672;SDS011;61972;19.480;-99.240;2022-12-10T04:34:39;9.43;;;6.10;;
73672;SDS011;61972;19.480;-99.240;2022-12-10T04:37:06;12.43;;;5.93;;
73672;SDS011;61972;19.480;-99.240;2022-12-10T04:39:32;13.45;;;6.53;;
73672;SDS011;61972;19.480;-99.240;2022-12-10T04:41:59;10.02;;;6.00;;
73672;SDS011;61972;19.480;-99.240;2022-12-10T04:44:26;10.50;;;6.22;;
73672;SDS011;61972;19.480;-99.240;2022-12-10T04:46:52;9.83;;;6.13;;
73672;SDS011;61972;19.480;-99.240;2022-12-10T04:49:20;11.02;;;6.22;;
73672;SDS011;61972;19.480;-99.240;2022-12-10T04:51:46;10.50;;;6.10;;
73672;SDS011;61972;19.480;-99.240;2022-12-10T04:54:13;9.13;;;5.75;;
73672;SDS011;61972;19.480;-99.240;2022-12-10T04:56:40;11.75;;;6.10;;
73672;SDS011;61972;19.480;-99.240;2022-12-10T04:59:07;10.40;;;6.10;;
73672;SDS011;61972;19.480;-99.240;2022-12-10T05:01:34;11.43;;;5.90;;
73672;SDS011;61972;19.480;-99.240;2022-12-10T05:04:02;9.73;;;6.18;;
73672;SDS011;61972;19.480;-99.240;2022-12-10T05:06:29;11.18;;;5.90;;
73672;SDS011;61972;19.480;-99.240;2022-12-10T05:08:56;10.13;;;6.10;;
73672;SDS011;61972;19.480;-99.240;2022-12-10T05:11:23;9.73;;;6.33;;
73672;SDS011;61972;19.480;-99.240;2022-12-10T05:13:51;13.60;;;6.53;;
73672;SDS011;61972;19.480;-99.240;2022-12-10T05:16:18;10.77;;;6.78;;
73672;SDS011;61972;19.480;-99.240;2022-12-10T05:18:47;14.80;;;6.72;;
73672;SDS011;61972;19.480;-99.240;2022-12-10T05:21:14;10.98;;;6.90;;
73672;SDS011;61972;19.480;-99.240;2022-12-10T05:23:43;12.30;;;6.10;;
73672;SDS011;61972;19.480;-99.240;2022-12-10T05:26:13;11.15;;;6.78;;
73672;SDS011;61972;19.480;-99.240;2022-12-10T05:28:41;13.70;;;6.75;;
73672;SDS011;61972;19.480;-99.240;2022-12-10T05:31:13;13.38;;;6.70;;
73672;SDS011;61972;19.480;-99.240;2022-12-10T05:33:40;11.38;;;6.60;;
73672;SDS011;61972;19.480;-99.240;2022-12-10T05:36:06;11.33;;;6.43;;
73672;SDS011;61972;19.480;-99.240;2022-12-10T05:38:34;11.32;;;6.15;;
73672;SDS011;61972;19.480;-99.240;2022-12-10T05:41:08;10.27;;;5.93;;
73672;SDS011;61972;19.480;-99.240;2022-12-10T05:43:40;12.00;;;6.63;;
73672;SDS011;61972;19.480;-99.240;2022-12-10T05:46:09;11.50;;;6.72;;
73672;SDS011;61972;19.480;-99.240;2022-12-10T05:48:37;11.53;;;6.40;;
73672;SDS011;61972;19.480;-99.240;2022-12-10T05:51:04;11.30;;;6.70;;
73672;SDS011;61972;19.480;-99.240;2022-12-10T05:53:31;10.52;;;6.47;;
73672;SDS011;61972;19.480;-99.240;2022-12-10T05:56:01;11.98;;;6.93;;
73672;SDS011;61972;19.480;-99.240;2022-12-10T05:58:28;10.85;;;6.60;;
73672;SDS011;61972;19.480;-99.240;2022-12-10T06:00:55;11.70;;;6.60;;
73672;SDS011;61972;19.480;-99.240;2022-12-10T06:03:22;11.63;;;6.85;;
73672;SDS011;61972;19.480;-99.240;2022-12-10T06:05:48;12.32;;;6.72;;
73672;SDS011;61972;19.480;-99.240;2022-12-10T06:08:14;10.80;;;6.68;;
73672;SDS011;61972;19.480;-99.240;2022-12-10T06:10:40;11.68;;;6.50;;
73672;SDS011;61972;19.480;-99.240;2022-12-10T06:13:07;11.70;;;6.80;;
73672;SDS011;61972;19.480;-99.240;2022-12-10T06:15:33;12.93;;;6.63;;
73672;SDS011;61972;19.480;-99.240;2022-12-10T06:17:59;11.82;;;6.30;;
73672;SDS011;61972;19.480;-99.240;2022-12-10T06:20:26;10.23;;;6.40;;
73672;SDS011;61972;19.480;-99.240;2022-12-10T06:22:52;10.65;;;6.25;;
73672;SDS011;61972;19.480;-99.240;2022-12-10T06:25:18;11.57;;;6.30;;
73672;SDS011;61972;19.480;-99.240;2022-12-10T06:27:44;10.27;;;6.72;;
73672;SDS011;61972;19.480;-99.240;2022-12-10T06:30:10;10.10;;;6.45;;
73672;SDS011;61972;19.480;-99.240;2022-12-10T06:32:37;12.77;;;6.45;;
73672;SDS011;61972;19.480;-99.240;2022-12-10T06:35:04;10.75;;;6.63;;
73672;SDS011;61972;19.480;-99.240;2022-12-10T06:37:31;11.93;;;6.23;;
73672;SDS011;61972;19.480;-99.240;2022-12-10T06:39:57;11.43;;;6.30;;
73672;SDS011;61972;19.480;-99.240;2022-12-10T06:42:23;10.38;;;6.50;;
73672;SDS011;61972;19.480;-99.240;2022-12-10T06:44:49;11.43;;;6.32;;
73672;SDS011;61972;19.480;-99.240;2022-12-10T06:47:15;12.20;;;6.40;;
73672;SDS011;61972;19.480;-99.240;2022-12-10T06:49:41;12.00;;;6.27;;
73672;SDS011;61972;19.480;-99.240;2022-12-10T06:52:07;12.85;;;6.82;;
73672;SDS011;61972;19.480;-99.240;2022-12-10T06:54:33;9.73;;;6.43;;
73672;SDS011;61972;19.480;-99.240;2022-12-10T06:56:59;11.90;;;6.18;;
73672;SDS011;61972;19.480;-99.240;2022-12-10T06:59:26;11.32;;;6.45;;
73672;SDS011;61972;19.480;-99.240;2022-12-10T07:01:52;13.37;;;6.93;;
73672;SDS011;61972;19.480;-99.240;2022-12-10T07:04:18;11.07;;;6.35;;
73672;SDS011;61972;19.480;-99.240;2022-12-10T07:06:44;10.48;;;6.03;;
73672;SDS011;61972;19.480;-99.240;2022-12-10T07:09:10;10.02;;;6.30;;
73672;SDS011;61972;19.480;-99.240;2022-12-10T07:11:36;12.73;;;6.47;;
73672;SDS011;61972;19.480;-99.240;2022-12-10T07:14:03;8.50;;;5.90;;
73672;SDS011;61972;19.480;-99.240;2022-12-10T07:16:30;10.73;;;6.47;;
73672;SDS011;61972;19.480;-99.240;2022-12-10T07:18:58;9.57;;;6.05;;
73672;SDS011;61972;19.480;-99.240;2022-12-10T07:21:30;9.80;;;5.95;;
73672;SDS011;61972;19.480;-99.240;2022-12-10T07:24:06;11.63;;;6.30;;
73672;SDS011;61972;19.480;-99.240;2022-12-10T07:26:35;10.70;;;5.93;;
73672;SDS011;61972;19.480;-99.240;2022-12-10T07:29:03;11.35;;;6.03;;
73672;SDS011;61972;19.480;-99.240;2022-12-10T07:31:30;9.98;;;6.35;;
73672;SDS011;61972;19.480;-99.240;2022-12-10T07:33:57;10.50;;;6.10;;
73672;SDS011;61972;19.480;-99.240;2022-12-10T07:36:23;9.88;;;5.95;;
73672;SDS011;61972;19.480;-99.240;2022-12-10T07:38:51;9.83;;;6.00;;
73672;SDS011;61972;19.480;-99.240;2022-12-10T07:41:18;10.63;;;6.03;;
73672;SDS011;61972;19.480;-99.240;2022-12-10T07:43:45;10.05;;;5.75;;
73672;SDS011;61972;19.480;-99.240;2022-12-10T07:46:22;10.35;;;6.05;;
73672;SDS011;61972;19.480;-99.240;2022-12-10T07:48:50;10.10;;;6.07;;
73672;SDS011;61972;19.480;-99.240;2022-12-10T07:51:18;8.50;;;5.53;;
73672;SDS011;61972;19.480;-99.240;2022-12-10T07:53:46;10.82;;;6.10;;
73672;SDS011;61972;19.480;-99.240;2022-12-10T07:56:13;9.40;;;5.72;;
73672;SDS011;61972;19.480;-99.240;2022-12-10T07:58:42;9.07;;;5.82;;
73672;SDS011;61972;19.480;-99.240;2022-12-10T08:01:10;10.90;;;6.22;;
73672;SDS011;61972;19.480;-99.240;2022-12-10T08:03:38;10.30;;;5.80;;
73672;SDS011;61972;19.480;-99.240;2022-12-10T08:06:06;9.40;;;5.63;;
73672;SDS011;61972;19.480;-99.240;2022-12-10T08:08:40;10.55;;;5.70;;
73672;SDS011;61972;19.480;-99.240;2022-12-10T08:11:07;9.60;;;5.38;;
73672;SDS011;61972;19.480;-99.240;2022-12-10T08:13:33;10.32;;;5.60;;
73672;SDS011;61972;19.480;-99.240;2022-12-10T08:16:01;11.00;;;5.83;;
73672;SDS011;61972;19.480;-99.240;2022-12-10T08:18:29;9.15;;;5.18;;
73672;SDS011;61972;19.480;-99.240;2022-12-10T08:20:56;11.15;;;5.55;;
73672;SDS011;61972;19.480;-99.240;2022-12-10T08:23:23;9.38;;;5.78;;
73672;SDS011;61972;19.480;-99.240;2022-12-10T08:25:49;9.90;;;5.35;;
73672;SDS011;61972;19.480;-99.240;2022-12-10T08:28:15;9.80;;;5.30;;
73672;SDS011;61972;19.480;-99.240;2022-12-10T08:30:50;11.30;;;5.32;;
73672;SDS011;61972;19.480;-99.240;2022-12-10T08:33:16;10.57;;;5.32;;
73672;SDS011;61972;19.480;-99.240;2022-12-10T08:35:42;10.30;;;5.47;;
73672;SDS011;61972;19.480;-99.240;2022-12-10T08:38:08;10.02;;;5.70;;
73672;SDS011;61972;19.480;-99.240;2022-12-10T08:40:38;9.13;;;5.77;;
73672;SDS011;61972;19.480;-99.240;2022-12-10T08:43:05;9.75;;;5.20;;
73672;SDS011;61972;19.480;-99.240;2022-12-10T08:45:32;9.60;;;5.00;;
73672;SDS011;61972;19.480;-99.240;2022-12-10T08:47:58;9.10;;;5.13;;
73672;SDS011;61972;19.480;-99.240;2022-12-10T08:50:24;10.90;;;5.22;;
73672;SDS011;61972;19.480;-99.240;2022-12-10T08:52:50;17.47;;;5.80;;
73672;SDS011;61972;19.480;-99.240;2022-12-10T08:55:16;9.82;;;5.00;;
73672;SDS011;61972;19.480;-99.240;2022-12-10T08:57:42;9.07;;;5.18;;
73672;SDS011;61972;19.480;-99.240;2022-12-10T09:00:08;10.00;;;4.90;;
73672;SDS011;61972;19.480;-99.240;2022-12-10T09:02:35;9.30;;;5.30;;
73672;SDS011;61972;19.480;-99.240;2022-12-10T09:05:01;9.73;;;5.47;;
73672;SDS011;61972;19.480;-99.240;2022-12-10T09:07:28;7.93;;;4.63;;
73672;SDS011;61972;19.480;-99.240;2022-12-10T09:09:54;9.10;;;5.10;;
73672;SDS011;61972;19.480;-99.240;2022-12-10T09:12:20;10.02;;;4.57;;
73672;SDS011;61972;19.480;-99.240;2022-12-10T09:14:46;16.02;;;5.00;;
73672;SDS011;61972;19.480;-99.240;2022-12-10T09:17:12;10.83;;;4.70;;
73672;SDS011;61972;19.480;-99.240;2022-12-10T09:19:38;10.05;;;4.80;;
73672;SDS011;61972;19.480;-99.240;2022-12-10T09:22:05;8.55;;;4.88;;
73672;SDS011;61972;19.480;-99.240;2022-12-10T09:24:31;10.18;;;4.90;;
73672;SDS011;61972;19.480;-99.240;2022-12-10T09:26:57;11.68;;;4.63;;
73672;SDS011;61972;19.480;-99.240;2022-12-10T09:29:23;10.73;;;4.90;;
73672;SDS011;61972;19.480;-99.240;2022-12-10T09:31:50;8.68;;;4.75;;
73672;SDS011;61972;19.480;-99.240;2022-12-10T09:34:16;8.18;;;4.82;;
73672;SDS011;61972;19.480;-99.240;2022-12-10T09:36:42;6.90;;;4.18;;
73672;SDS011;61972;19.480;-99.240;2022-12-10T09:39:09;8.20;;;4.70;;
73672;SDS011;61972;19.480;-99.240;2022-12-10T09:44:29;7.65;;;4.25;;
73672;SDS011;61972;19.480;-99.240;2022-12-10T09:47:02;7.82;;;4.75;;
73672;SDS011;61972;19.480;-99.240;2022-12-10T09:49:38;7.13;;;4.00;;
73672;SDS011;61972;19.480;-99.240;2022-12-10T09:52:23;6.78;;;4.05;;
73672;SDS011;61972;19.480;-99.240;2022-12-10T09:54:59;6.87;;;4.00;;
73672;SDS011;61972;19.480;-99.240;2022-12-10T09:57:49;7.57;;;3.72;;
73672;SDS011;61972;19.480;-99.240;2022-12-10T10:00:22;7.93;;;3.90;;
73672;SDS011;61972;19.480;-99.240;2022-12-10T10:02:52;6.32;;;3.83;;
73672;SDS011;61972;19.480;-99.240;2022-12-10T10:05:25;6.78;;;4.07;;
73672;SDS011;61972;19.480;-99.240;2022-12-10T10:07:53;6.60;;;3.90;;
73672;SDS011;61972;19.480;-99.240;2022-12-10T10:13:00;6.68;;;3.70;;
73672;SDS011;61972;19.480;-99.240;2022-12-10T10:15:47;8.00;;;4.05;;
73672;SDS011;61972;19.480;-99.240;2022-12-10T10:21:00;7.27;;;3.93;;
73672;SDS011;61972;19.480;-99.240;2022-12-10T10:23:27;6.15;;;3.53;;
73672;SDS011;61972;19.480;-99.240;2022-12-10T10:25:53;5.38;;;3.58;;
73672;SDS011;61972;19.480;-99.240;2022-12-10T10:28:20;6.63;;;3.78;;
73672;SDS011;61972;19.480;-99.240;2022-12-10T10:30:48;7.85;;;4.10;;
73672;SDS011;61972;19.480;-99.240;2022-12-10T10:33:17;7.30;;;5.03;;
73672;SDS011;61972;19.480;-99.240;2022-12-10T10:35:44;9.07;;;3.97;;
73672;SDS011;61972;19.480;-99.240;2022-12-10T10:38:22;5.57;;;3.70;;
73672;SDS011;61972;19.480;-99.240;2022-12-10T10:40:52;6.28;;;3.75;;
73672;SDS011;61972;19.480;-99.240;2022-12-10T10:43:27;8.13;;;3.60;;
73672;SDS011;61972;19.480;-99.240;2022-12-10T10:48:28;6.72;;;3.85;;
73672;SDS011;61972;19.480;-99.240;2022-12-10T10:53:54;5.65;;;3.50;;
73672;SDS011;61972;19.480;-99.240;2022-12-10T10:56:28;7.03;;;3.63;;
73672;SDS011;61972;19.480;-99.240;2022-12-10T10:59:20;6.37;;;3.43;;
73672;SDS011;61972;19.480;-99.240;2022-12-10T11:02:01;6.82;;;3.70;;
73672;SDS011;61972;19.480;-99.240;2022-12-10T11:07:56;5.30;;;3.40;;
73672;SDS011;61972;19.480;-99.240;2022-12-10T11:10:03;7.32;;;3.88;;
73672;SDS011;61972;19.480;-99.240;2022-12-10T11:12:41;6.10;;;3.57;;
73672;SDS011;61972;19.480;-99.240;2022-12-10T11:17:51;5.53;;;3.20;;
73672;SDS011;61972;19.480;-99.240;2022-12-10T11:20:20;7.47;;;3.45;;
73672;SDS011;61972;19.480;-99.240;2022-12-10T11:22:53;5.25;;;3.13;;
73672;SDS011;61972;19.480;-99.240;2022-12-10T11:25:23;6.47;;;3.17;;
73672;SDS011;61972;19.480;-99.240;2022-12-10T11:28:02;5.68;;;3.40;;
73672;SDS011;61972;19.480;-99.240;2022-12-10T11:30:32;4.78;;;2.92;;
73672;SDS011;61972;19.480;-99.240;2022-12-10T11:36:28;5.40;;;3.20;;
73672;SDS011;61972;19.480;-99.240;2022-12-10T11:39:07;6.13;;;3.73;;
73672;SDS011;61972;19.480;-99.240;2022-12-10T11:52:22;5.10;;;3.17;;
73672;SDS011;61972;19.480;-99.240;2022-12-10T11:55:09;5.47;;;3.20;;
73672;SDS011;61972;19.480;-99.240;2022-12-10T11:58:00;6.50;;;3.50;;
73672;SDS011;61972;19.480;-99.240;2022-12-10T12:18:27;4.85;;;3.15;;
73672;SDS011;61972;19.480;-99.240;2022-12-10T12:21:03;5.33;;;3.30;;
73672;SDS011;61972;19.480;-99.240;2022-12-10T12:26:27;4.53;;;2.75;;
73672;SDS011;61972;19.480;-99.240;2022-12-10T12:31:42;4.70;;;2.95;;
73672;SDS011;61972;19.480;-99.240;2022-12-10T12:36:47;5.50;;;3.20;;
73672;SDS011;61972;19.480;-99.240;2022-12-10T12:39:35;4.82;;;2.90;;
73672;SDS011;61972;19.480;-99.240;2022-12-10T12:42:31;5.28;;;3.00;;
73672;SDS011;61972;19.480;-99.240;2022-12-10T12:45:12;5.43;;;3.38;;
73672;SDS011;61972;19.480;-99.240;2022-12-10T12:47:44;5.63;;;3.40;;
73672;SDS011;61972;19.480;-99.240;2022-12-10T12:50:47;4.75;;;2.80;;
73672;SDS011;61972;19.480;-99.240;2022-12-10T12:53:15;5.03;;;2.90;;
73672;SDS011;61972;19.480;-99.240;2022-12-10T12:55:48;5.50;;;2.90;;
73672;SDS011;61972;19.480;-99.240;2022-12-10T12:58:27;4.82;;;3.10;;
73672;SDS011;61972;19.480;-99.240;2022-12-10T13:01:27;5.07;;;3.00;;
73672;SDS011;61972;19.480;-99.240;2022-12-10T13:03:59;5.47;;;3.00;;
73672;SDS011;61972;19.480;-99.240;2022-12-10T13:06:29;5.05;;;2.78;;
73672;SDS011;61972;19.480;-99.240;2022-12-10T13:11:40;5.20;;;2.92;;
73672;SDS011;61972;19.480;-99.240;2022-12-10T13:30:25;4.15;;;2.60;;
73672;SDS011;61972;19.480;-99.240;2022-12-10T13:33:00;4.40;;;2.55;;
73672;SDS011;61972;19.480;-99.240;2022-12-10T13:35:41;3.83;;;2.60;;
73672;SDS011;61972;19.480;-99.240;2022-12-10T13:38:23;4.50;;;2.65;;
73672;SDS011;61972;19.480;-99.240;2022-12-10T13:41:02;4.57;;;2.80;;
73672;SDS011;61972;19.480;-99.240;2022-12-10T13:43:56;4.30;;;2.58;;
73672;SDS011;61972;19.480;-99.240;2022-12-10T13:49:22;4.15;;;2.50;;
73672;SDS011;61972;19.480;-99.240;2022-12-10T13:54:54;4.70;;;2.40;;
73672;SDS011;61972;19.480;-99.240;2022-12-10T14:00:21;3.70;;;2.40;;
73672;SDS011;61972;19.480;-99.240;2022-12-10T14:08:18;4.97;;;2.60;;
73672;SDS011;61972;19.480;-99.240;2022-12-10T14:10:49;5.75;;;2.50;;
73672;SDS011;61972;19.480;-99.240;2022-12-10T14:13:16;4.03;;;2.33;;
73672;SDS011;61972;19.480;-99.240;2022-12-10T14:15:55;4.30;;;2.55;;
73672;SDS011;61972;19.480;-99.240;2022-12-10T14:18:25;4.20;;;2.30;;
73672;SDS011;61972;19.480;-99.240;2022-12-10T14:20:55;3.70;;;2.30;;
73672;SDS011;61972;19.480;-99.240;2022-12-10T14:23:26;4.35;;;2.40;;
73672;SDS011;61972;19.480;-99.240;2022-12-10T14:26:35;4.78;;;2.60;;
73672;SDS011;61972;19.480;-99.240;2022-12-10T14:29:42;4.22;;;2.65;;
73672;SDS011;61972;19.480;-99.240;2022-12-10T14:31:47;4.82;;;2.47;;
73672;SDS011;61972;19.480;-99.240;2022-12-10T14:34:15;3.60;;;2.37;;
73672;SDS011;61972;19.480;-99.240;2022-12-10T14:36:44;3.83;;;2.30;;
73672;SDS011;61972;19.480;-99.240;2022-12-10T14:39:16;4.50;;;2.60;;
73672;SDS011;61972;19.480;-99.240;2022-12-10T14:41:50;4.07;;;2.50;;
73672;SDS011;61972;19.480;-99.240;2022-12-10T14:44:18;3.85;;;2.35;;
73672;SDS011;61972;19.480;-99.240;2022-12-10T14:46:48;4.73;;;2.70;;
73672;SDS011;61972;19.480;-99.240;2022-12-10T14:49:23;4.38;;;2.55;;
73672;SDS011;61972;19.480;-99.240;2022-12-10T14:51:51;5.93;;;2.33;;
73672;SDS011;61972;19.480;-99.240;2022-12-10T14:54:28;4.00;;;2.40;;
73672;SDS011;61972;19.480;-99.240;2022-12-10T14:57:03;4.30;;;2.45;;
73672;SDS011;61972;19.480;-99.240;2022-12-10T14:59:36;3.90;;;2.20;;
73672;SDS011;61972;19.480;-99.240;2022-12-10T15:02:07;3.97;;;2.20;;
73672;SDS011;61972;19.480;-99.240;2022-12-10T15:04:45;4.38;;;2.30;;
73672;SDS011;61972;19.480;-99.240;2022-12-10T15:07:13;3.63;;;2.10;;
73672;SDS011;61972;19.480;-99.240;2022-12-10T15:09:43;4.40;;;2.33;;
73672;SDS011;61972;19.480;-99.240;2022-12-10T15:12:19;3.77;;;2.30;;
73672;SDS011;61972;19.480;-99.240;2022-12-10T15:14:53;4.25;;;2.35;;
73672;SDS011;61972;19.480;-99.240;2022-12-10T15:17:39;4.13;;;2.20;;
73672;SDS011;61972;19.480;-99.240;2022-12-10T15:20:20;4.10;;;2.30;;
73672;SDS011;61972;19.480;-99.240;2022-12-10T15:22:49;4.07;;;2.40;;
73672;SDS011;61972;19.480;-99.240;2022-12-10T15:25:23;3.23;;;1.93;;
73672;SDS011;61972;19.480;-99.240;2022-12-10T15:27:53;4.80;;;2.20;;
73672;SDS011;61972;19.480;-99.240;2022-12-10T15:30:34;3.80;;;2.30;;
73672;SDS011;61972;19.480;-99.240;2022-12-10T15:33:03;3.05;;;2.00;;
73672;SDS011;61972;19.480;-99.240;2022-12-10T15:35:47;3.35;;;2.00;;
73672;SDS011;61972;19.480;-99.240;2022-12-10T15:38:14;4.00;;;2.40;;
73672;SDS011;61972;19.480;-99.240;2022-12-10T15:40:48;3.20;;;1.95;;
73672;SDS011;61972;19.480;-99.240;2022-12-10T15:43:25;3.83;;;2.28;;
73672;SDS011;61972;19.480;-99.240;2022-12-10T15:45:57;3.63;;;2.25;;
73672;SDS011;61972;19.480;-99.240;2022-12-10T15:48:26;3.38;;;2.03;;
73672;SDS011;61972;19.480;-99.240;2022-12-10T15:50:54;4.17;;;2.07;;
73672;SDS011;61972;19.480;-99.240;2022-12-10T15:53:25;3.67;;;1.90;;
73672;SDS011;61972;19.480;-99.240;2022-12-10T15:55:53;4.32;;;2.10;;
73672;SDS011;61972;19.480;-99.240;2022-12-10T15:58:20;3.90;;;2.50;;
73672;SDS011;61972;19.480;-99.240;2022-12-10T16:00:46;3.42;;;2.03;;
73672;SDS011;61972;19.480;-99.240;2022-12-10T16:03:13;3.40;;;2.17;;
73672;SDS011;61972;19.480;-99.240;2022-12-10T16:05:41;10.48;;;2.22;;
73672;SDS011;61972;19.480;-99.240;2022-12-10T16:08:20;3.00;;;1.73;;
73672;SDS011;61972;19.480;-99.240;2022-12-10T16:10:53;3.72;;;2.00;;
73672;SDS011;61972;19.480;-99.240;2022-12-10T16:13:24;6.13;;;2.30;;
73672;SDS011;61972;19.480;-99.240;2022-12-10T16:15:58;5.97;;;3.10;;
73672;SDS011;61972;19.480;-99.240;2022-12-10T16:18:32;6.32;;;3.38;;
73672;SDS011;61972;19.480;-99.240;2022-12-10T16:21:01;6.75;;;3.97;;
73672;SDS011;61972;19.480;-99.240;2022-12-10T16:23:31;10.63;;;6.20;;
73672;SDS011;61972;19.480;-99.240;2022-12-10T16:25:58;19.13;;;9.27;;
73672;SDS011;61972;19.480;-99.240;2022-12-10T16:28:25;17.60;;;9.73;;
73672;SDS011;61972;19.480;-99.240;2022-12-10T16:30:55;15.57;;;9.00;;